Ludlow, Missouri
Current Conditions -  °F | °C
As of 6:35 AM on Friday 31 Oct 2014 (Local Time) from KGPH Reporting Station
Overcast Overcast  
Wind Chill: 28°   Ceiling: 2900
Heat Index: 37°   Visibility: 10mi
Dew Point: 28°   Wind: 16mph
Humidity: 70%   Direction: 340°NNW
Pressure: 30.37"   Gusts: 29mph
Location:  39.66°N, 93.7°W
Report Text: KGPH 311135Z AUTO 34014G25KT 10SM OVC029 03/M02 A3037 RMK AO2
Loading
Personal Weather Stations






























Interactive Weather Map
Tropical Storm Tracking
New forecast layout! Learn more

10-Day Weather Forecast

Advertisements
Track Severe Weather on mobile